Have a Safe July 4th! 

Flight Track Log - Related Links

Times and Time Zones

All times are in EST time to prevent confusion due to time zone crossing. See the SWA4166 flight status page for this flight to view local times or setup timezone preferences in your user account.

Time Position Orientation Groundspeed Altitude Reporting Facility
EST Latitude Longitude Course Direction KTS MPH feet Rate Location/Type
Sun 12:47:40 AM 39.8667 -104.8000 270° West 230 265 7,700  Level Denver TRACON
Sun 12:48:40 AM 39.9000 -104.8833 298° West 265 305 10,200 2,087 Climbing Denver TRACON
Sun 12:49:35 AM 39.9000 -104.9833 270° West 317 365 11,700 2,047 Climbing Denver TRACON
Sun 12:50:05 AM 39.9086 -105.0319 283° West 326 375 13,100 2,637 Climbing Denver Center
Sun 12:51:06 AM 39.9208 -105.1578 277° West 350 403 15,700 2,803 Climbing Denver Center
Sun 12:52:00 AM 39.8626 -105.3801 281° West  Level Estimated
Sun 12:52:07 AM 39.9350 -105.2978 278° West 360 414 18,800  Level Denver Center
Sun 12:53:00 AM 39.8623 -105.5214 270° West  Level Estimated
Sun 12:53:08 AM 39.9489 -105.4308 278° West 368 423 21,200  Level Denver Center
Sun 12:54:09 AM 39.9631 -105.5672 278° West 380 437 23,100 1,721 Climbing Denver Center
Sun 12:55:10 AM 39.9739 -105.7094 276° West 397 457 24,700 1,426 Climbing Denver Center
Sun 12:56:11 AM 39.9697 -105.8553 268° West 400 460 26,000 885 Climbing Denver Center
Sun 12:57:12 AM 39.9769 -106.0006 274° West 402 463 26,500 893 Climbing Denver Center
Sun 12:58:12 AM 39.9864 -106.1475 275° West 407 468 27,800 1,190 Climbing Denver Center
Sun 12:59:13 AM 39.9950 -106.2997 274° West 419 482 28,900 1,475 Climbing Denver Center
Sun 01:00:14 AM 40.0022 -106.4533 274° West 425 489 30,800 1,770 Climbing Denver Center
Sun 01:01:15 AM 40.0097 -106.5975 274° West 417 480 32,500 1,672 Climbing Denver Center
Sun 01:02:16 AM 40.0181 -106.7606 274° West 405 466 34,200 1,377 Climbing Denver Center
Sun 01:03:17 AM 40.0253 -106.9003 274° West 404 465 35,300 893 Climbing Denver Center
Sun 01:04:17 AM 40.0328 -107.0633 273° West 404 465 36,000 347 Climbing Denver Center
Sun 01:05:18 AM 40.0464 -107.2022 277° West 405 466 36,000  Level Denver Center
Sun 01:06:19 AM 40.0719 -107.3344 284° West 395 455 36,000  Level Denver Center
Sun 01:07:20 AM 40.1011 -107.4925 284° West 401 461 36,000  Level Denver Center
Sun 01:08:21 AM 40.1267 -107.6253 284° West 397 457 36,000  Level Denver Center
Sun 01:09:21 AM 40.1553 -107.7814 284° West 397 457 36,000  Level Denver Center
Sun 01:10:22 AM 40.1800 -107.9147 284° West 396 456 36,000  Level Denver Center
Sun 01:11:23 AM 40.2047 -108.0481 284° West 396 456 36,000  Level Denver Center
Sun 01:12:24 AM 40.2319 -108.2033 283° West 394 453 36,000  Level Denver Center
Sun 01:13:25 AM 40.2567 -108.3367 284° West 395 455 36,000  Level Denver Center
Sun 01:14:25 AM 40.2797 -108.4697 283° West 394 453 36,000  Level Denver Center
Sun 01:15:26 AM 40.3072 -108.6233 283° West 390 449 36,000  Level Denver Center
Sun 01:16:27 AM 40.3303 -108.7547 283° West 389 448 36,000  Level Denver Center
Sun 01:17:28 AM 40.3539 -108.8858 283° West 388 447 36,000  Level Denver Center
Sun 01:18:32 AM 40.3803 -109.0381 283° West 385 443 36,000  Level Salt Lake Center
Sun 01:19:33 AM 40.4022 -109.1667 283° West 380 437 36,000  Level Salt Lake Center
Sun 01:20:34 AM 40.4281 -109.3158 283° West 377 434 36,000  Level Salt Lake Center
Sun 01:21:35 AM 40.4492 -109.4447 282° West 377 434 36,000  Level Salt Lake Center
Sun 01:22:36 AM 40.4753 -109.5917 283° West 372 428 36,000  Level Salt Lake Center
Sun 01:23:37 AM 40.4950 -109.7169 282° West 368 423 36,000 295 Level Salt Lake Center
Sun 01:24:38 AM 40.5169 -109.8419 283° West 367 422 36,600 787 Climbing Salt Lake Center
Sun 01:25:39 AM 40.5414 -109.9900 282° West 373 429 37,600 689 Climbing Salt Lake Center
Sun 01:26:40 AM 40.5617 -110.1181 282° West 374 430 38,000 197 Climbing Salt Lake Center
Sun 01:27:41 AM 40.5861 -110.2647 282° West 376 433 38,000 -836 Level Salt Lake Center
Sun 01:28:42 AM 40.6069 -110.3903 282° West 369 425 36,300 -984 Descending Salt Lake Center
Sun 01:29:43 AM 40.6253 -110.5075 282° West 348 400 36,000 -148 Descending Salt Lake Center
Sun 01:30:44 AM 40.6450 -110.6306 282° West 349 402 36,000  Level Salt Lake Center
Sun 01:31:45 AM 40.6650 -110.7569 282° West 354 407 36,000  Level Salt Lake Center
Sun 01:32:45 AM 40.6847 -110.8839 282° West 354 407 36,000  Level Salt Lake Center
Sun 01:33:46 AM 40.7056 -111.0133 282° West 360 414 36,000  Level Salt Lake Center
Sun 01:34:47 AM 40.7289 -111.1636 282° West 352 405 36,000  Level Salt Lake Center
Sun 01:35:48 AM 40.7331 -111.2928 272° West 356 410 36,000  Level Salt Lake Center
Sun 01:36:49 AM 40.7161 -111.4311 261° West 378 435 36,000  Level Salt Lake Center
Sun 01:37:50 AM 40.6986 -111.5686 261° West 378 435 36,000  Level Salt Lake Center
Sun 01:38:51 AM 40.6797 -111.7061 260° West 380 437 36,000  Level Salt Lake Center
Sun 01:39:52 AM 40.6611 -111.8422 260° West 375 432 36,000  Level Salt Lake Center
Sun 01:40:53 AM 40.6419 -111.9792 260° West 379 436 36,000  Level Salt Lake Center
Sun 01:41:53 AM 40.6233 -112.1167 260° West 381 438 36,000  Level Salt Lake Center
Sun 01:42:54 AM 40.6039 -112.2561 260° West 386 444 36,000  Level Salt Lake Center
Sun 01:43:55 AM 40.5842 -112.3931 259° West 381 438 36,000  Level Salt Lake Center
Sun 01:44:56 AM 40.5656 -112.5303 260° West 381 438 36,000  Level Salt Lake Center
Sun 01:45:57 AM 40.5461 -112.6672 259° West 382 440 36,000  Level Salt Lake Center
Sun 01:46:58 AM 40.5267 -112.8047 260° West 384 442 36,000  Level Salt Lake Center
Sun 01:47:59 AM 40.5067 -112.9444 259° West 388 447 36,000  Level Salt Lake Center
Sun 01:48:59 AM 40.4839 -113.0825 258° West 387 445 36,000  Level Salt Lake Center
Sun 01:50:00 AM 40.4631 -113.2231 259° West 392 451 36,000  Level Salt Lake Center
Sun 01:51:01 AM 40.4428 -113.3656 259° West 397 457 36,000  Level Salt Lake Center
Sun 01:52:02 AM 40.4214 -113.5075 259° West 397 457 36,000  Level Salt Lake Center
Sun 01:53:03 AM 40.3992 -113.6497 258° West 398 458 36,000  Level Salt Lake Center
Sun 01:54:03 AM 40.3742 -113.8222 259° West 401 461 36,000  Level Salt Lake Center
Sun 01:55:04 AM 40.3508 -113.9653 258° West 402 463 36,000  Level Salt Lake Center
Sun 01:56:05 AM 40.3294 -114.1072 259° West 399 459 36,000  Level Salt Lake Center
Sun 01:57:06 AM 40.3067 -114.2492 258° West 399 459 36,000  Level Salt Lake Center
Sun 01:58:06 AM 40.2842 -114.3933 258° West 404 465 36,000  Level Salt Lake Center
Sun 01:59:07 AM 40.2608 -114.5364 258° West 404 465 36,000  Level Salt Lake Center
Sun 02:00:08 AM 40.2372 -114.6792 258° West 403 464 36,000  Level Salt Lake Center
Sun 02:01:08 AM 40.2144 -114.8225 258° West 405 466 36,000  Level Salt Lake Center
Sun 02:02:09 AM 40.1914 -114.9614 258° West 407 468 36,000  Level Salt Lake Center
Sun 02:03:10 AM 40.1653 -115.1214 258° West 405 466 36,000  Level Salt Lake Center
Sun 02:04:11 AM 40.1419 -115.2639 258° West 415 478 36,000  Level Salt Lake Center
Sun 02:05:11 AM 40.1178 -115.4022 257° West 409 471 36,000  Level Salt Lake Center
Sun 02:06:12 AM 40.0906 -115.5658 258° West 411 473 36,000  Level Salt Lake Center
Sun 02:07:13 AM 40.0669 -115.7067 258° West 413 475 36,000  Level Salt Lake Center
Sun 02:08:13 AM 40.0419 -115.8497 257° West 418 481 36,000  Level Salt Lake Center
Sun 02:09:14 AM 40.0128 -116.0153 257° West 418 481 36,000  Level Salt Lake Center
Sun 02:10:15 AM 39.9850 -116.1586 256° West 422 486 36,000  Level Salt Lake Center
Sun 02:11:15 AM 39.9597 -116.3011 257° West 419 482 36,000  Level Salt Lake Center
Sun 02:12:16 AM 39.9353 -116.4433 257° West 418 481 36,000  Level Salt Lake Center
Sun 02:13:17 AM 39.9050 -116.6089 257° West 418 481 36,000  Level Salt Lake Center
Sun 02:14:17 AM 39.8783 -116.7517 256° West 421 484 36,000  Level Salt Lake Center
Sun 02:15:18 AM 39.8525 -116.8953 257° West 422 486 36,000  Level Salt Lake Center
Sun 02:16:19 AM 39.8219 -117.0622 257° West 422 486 36,000  Level Salt Lake Center
Sun 02:17:19 AM 39.7950 -117.2047 256° West 422 486 36,000  Level Salt Lake Center
Sun 02:18:20 AM 39.7681 -117.3475 256° West 423 487 36,000  Level Salt Lake Center
Sun 02:19:21 AM 39.7417 -117.4903 257° West 424 488 36,000  Level Salt Lake Center
Sun 02:20:21 AM 39.7144 -117.6372 257° West 425 489 36,000  Level Salt Lake Center
Sun 02:21:22 AM 39.6858 -117.7850 256° West 423 487 36,000  Level Salt Lake Center
Sun 02:22:23 AM 39.6569 -117.9339 256° West 425 489 36,000  Level Salt Lake Center
Sun 02:23:25 AM 39.6225 -118.1144 256° West 429 494 36,000  Level Oakland Center
Sun 02:24:25 AM 39.5936 -118.2628 256° West 427 491 36,000  Level Oakland Center
Sun 02:25:26 AM 39.5642 -118.4122 256° West 431 496 36,000  Level Oakland Center
Sun 02:26:26 AM 39.5353 -118.5600 256° West 428 493 36,000  Level Oakland Center
Sun 02:27:27 AM 39.5058 -118.7069 255° West 430 495 36,000  Level Oakland Center
Sun 02:28:27 AM 39.4767 -118.8508 255° West 428 493 36,000  Level Oakland Center
Sun 02:29:28 AM 39.4461 -118.9978 255° West 433 498 36,000  Level Oakland Center
Sun 02:30:28 AM 39.4150 -119.1486 255° West 433 498 36,000 -149 Level Oakland Center
Sun 02:31:29 AM 39.3853 -119.3003 256° West 436 502 35,700 -744 Descending Oakland Center
Sun 02:32:29 AM 39.3533 -119.4486 254° West 431 496 34,500 -1,983 Descending Oakland Center
Sun 02:33:30 AM 39.3231 -119.5975 255° West 430 495 31,700 -2,727 Descending Oakland Center
Sun 02:34:30 AM 39.2847 -119.7739 254° West 424 488 29,000 -2,380 Descending Oakland Center
Sun 02:35:31 AM 39.2558 -119.9136 255° West 407 468 26,900 -2,033 Descending Oakland Center
Sun 02:36:31 AM 39.2278 -120.0489 255° West 394 453 24,900 -2,033 Descending Oakland Center
Sun 02:37:32 AM 39.2031 -120.1619 254° West 378 435 22,800 -1,983 Descending Oakland Center
Sun 02:38:32 AM 39.1747 -120.2961 255° West 384 442 20,900 -1,785 Descending Oakland Center
Sun 02:39:33 AM 39.1425 -120.4261 252° West 384 442 19,200 -1,785 Descending Oakland Center
Sun 02:40:33 AM 39.1086 -120.5525 251° West 377 434 17,300 -1,934 Descending Oakland Center
Sun 02:41:34 AM 39.0767 -120.6747 251° West 366 421 15,300 -1,983 Descending Oakland Center
Sun 02:42:34 AM 39.0461 -120.7950 252° West 357 411 13,300 -1,934 Descending Oakland Center
Sun 02:43:35 AM 39.0153 -120.9133 251° West 352 405 11,400 -1,587 Descending Oakland Center
Sun 02:44:35 AM 38.9797 -121.0486 251° West 337 388 10,100 -694 Descending Oakland Center
Sun 02:45:36 AM 38.9511 -121.1617 252° West 334 384 10,000 -99 Descending Oakland Center
Sun 02:46:36 AM 38.9208 -121.2744 251° West 338 389 9,900 -255 Descending Oakland Center
Sun 02:47:10 AM 38.9000 -121.3333 246° West 292 336 9,600 -1,023 Descending Northern Cal TRACON
Sun 02:48:04 AM 38.8833 -121.4167 256° West 285 328 8,400 -1,263 Descending Northern Cal TRACON
Sun 02:49:04 AM 38.8500 -121.5167 247° West 279 321 7,200 -1,250 Descending Northern Cal TRACON
Sun 02:50:04 AM 38.8167 -121.6000 243° Southwest 272 313 5,900 -1,190 Descending Northern Cal TRACON
Sun 02:51:10 AM 38.7500 -121.6500 210° Southwest 272 313 4,700 -1,333 Descending Northern Cal TRACON
Sun 02:52:10 AM 38.6667 -121.6667 189° South 249 287 3,100 -1,263 Descending Northern Cal TRACON
Sun 02:53:04 AM 38.6167 -121.6833 195° South 223 257 2,300 -944 Descending Northern Cal TRACON
Sun 02:53:39 AM 38.5883 -121.6900 190° South 228 262 1,700 -500 Descending Oakland Center
Sun 02:54:40 AM 38.5875 -121.6308 91° East 192 221 1,500 -298 Descending Oakland Center
Sun 02:55:40 AM 38.6247 -121.6031 30° Northeast 162 186 1,100 -600 Descending Oakland Center
Sun 02:56:40 AM 38.6672 -121.6017 North 153 176 300 -496 Descending Oakland Center
Sun 02:57:41 AM 38.7081 -121.6014 360° North 153 176 100 -197 Descending Oakland Center

Login

Don't have an account? Register now (free) for customized features, flight alerts, and more!